Benalla, Australia
Current Conditions -  °F | °C
As of 7:00 PM on Monday 20 Oct 2014 (Local Time) from YMAY Reporting Station
Clear Clear  
Wind Chill: 77°   Ceiling: Unl
Heat Index: 78°   Visibility: 6mi
Dew Point: 54°   Wind: 5mph
Humidity: 44%   Direction: 150°SSE
Pressure: 30.18"   Gusts: NA
Location:  36.55°S, 145.99°E
Report Text: YMAY 200800Z AUTO 15004KT 9999 // NCD 25/12 Q1022
Loading
Personal Weather Stations






























Interactive Weather Map
Tropical Storm Tracking
New forecast layout! Learn more

10-Day Weather Forecast

Advertisements
Track Severe Weather on mobile